Time;durP1;ratioP1;P1;durP2;ratioP2;P2;SDS_P1;SDS_P2;PMS_P1;PMS_P2;Temp;Humidity;BMP_temperature;BMP_pressure;BME280_temperature;BME280_humidity;BME280_pressure;Samples;Min_cycle;Max_cycle;Signal;HPM_P1;HPM_P2
2024/01/25 00:01:40;;;;;;;12.55;3.45;;;;;;;;;;5021923;28;41587;-67
2024/01/25 00:04:08;;;;;;;13.50;3.90;;;;;;;;;;5014803;28;42623;-67
2024/01/25 00:06:36;;;;;;;12.00;3.40;;;;;;;;;;5012025;28;41690;-68
2024/01/25 00:09:05;;;;;;;13.43;3.92;;;;;;;;;;5006996;28;41530;-67
2024/01/25 00:11:35;;;;;;;11.63;3.15;;;;;;;;;;5017692;28;41518;-67
2024/01/25 00:14:04;;;;;;;11.00;3.35;;;;;;;;;;5018291;28;42991;-67
2024/01/25 00:16:32;;;;;;;9.35;3.58;;;;;;;;;;5013942;28;41234;-67
2024/01/25 00:19:00;;;;;;;10.32;3.28;;;;;;;;;;5021994;28;42475;-67
2024/01/25 00:21:28;;;;;;;10.00;2.80;;;;;;;;;;5025937;28;41969;-67
2024/01/25 00:23:56;;;;;;;13.18;3.50;;;;;;;;;;5024642;28;42669;-68
2024/01/25 00:26:24;;;;;;;13.02;3.53;;;;;;;;;;5024839;28;41590;-67
2024/01/25 00:28:52;;;;;;;9.68;3.35;;;;;;;;;;5024227;28;41483;-67
2024/01/25 00:31:21;;;;;;;12.07;3.30;;;;;;;;;;5015877;28;41116;-68
2024/01/25 00:33:49;;;;;;;14.00;3.45;;;;;;;;;;5026351;28;41676;-67
2024/01/25 00:36:18;;;;;;;10.98;3.75;;;;;;;;;;5022428;28;41649;-68
2024/01/25 00:38:46;;;;;;;10.27;3.30;;;;;;;;;;5011776;28;41844;-67
2024/01/25 00:41:14;;;;;;;11.10;3.42;;;;;;;;;;5013048;28;42563;-67
2024/01/25 00:43:42;;;;;;;13.07;3.58;;;;;;;;;;5018056;28;42318;-67
2024/01/25 00:46:11;;;;;;;10.23;3.40;;;;;;;;;;5022990;28;42311;-67
2024/01/25 00:48:42;;;;;;;14.93;3.50;;;;;;;;;;5014780;28;41862;-67
2024/01/25 00:51:12;;;;;;;12.93;3.70;;;;;;;;;;5014639;28;41540;-67
2024/01/25 00:53:41;;;;;;;11.18;2.67;;;;;;;;;;5025848;28;42198;-67
2024/01/25 00:56:09;;;;;;;11.63;3.10;;;;;;;;;;5017143;28;41580;-67
2024/01/25 00:58:38;;;;;;;9.00;3.05;;;;;;;;;;5016578;28;42260;-67
2024/01/25 01:01:06;;;;;;;8.45;3.47;;;;;;;;;;5014789;28;42389;-67
2024/01/25 01:03:34;;;;;;;11.85;3.85;;;;;;;;;;5013810;28;41205;-67
2024/01/25 01:06:04;;;;;;;11.70;3.13;;;;;;;;;;5012562;28;42096;-67
2024/01/25 01:08:32;;;;;;;10.85;3.08;;;;;;;;;;5015752;28;42267;-67
2024/01/25 01:11:00;;;;;;;10.15;3.45;;;;;;;;;;5012956;28;41172;-67
2024/01/25 01:13:28;;;;;;;10.02;3.00;;;;;;;;;;5016923;28;42563;-67
2024/01/25 01:15:56;;;;;;;10.40;3.08;;;;;;;;;;5009896;28;40864;-67
2024/01/25 01:18:24;;;;;;;10.43;3.10;;;;;;;;;;5015175;28;41100;-66
2024/01/25 01:20:53;;;;;;;10.07;3.13;;;;;;;;;;5022749;28;42862;-67
2024/01/25 01:23:22;;;;;;;11.85;3.05;;;;;;;;;;5023306;28;41589;-67
2024/01/25 01:25:50;;;;;;;11.90;2.90;;;;;;;;;;5024471;28;42669;-67
2024/01/25 01:28:18;;;;;;;13.15;3.60;;;;;;;;;;5027236;28;41872;-67
2024/01/25 01:30:46;;;;;;;9.98;3.67;;;;;;;;;;5013681;28;41512;-66
2024/01/25 01:33:14;;;;;;;9.05;2.92;;;;;;;;;;5019106;28;42090;-67
2024/01/25 01:35:42;;;;;;;8.82;3.22;;;;;;;;;;5023311;28;41269;-68
2024/01/25 01:38:10;;;;;;;8.57;2.90;;;;;;;;;;5024279;28;41095;-67
2024/01/25 01:40:39;;;;;;;8.70;2.92;;;;;;;;;;5012075;28;41800;-67
2024/01/25 01:43:07;;;;;;;13.80;3.20;;;;;;;;;;5025209;28;41220;-67
2024/01/25 01:45:35;;;;;;;9.32;3.10;;;;;;;;;;5022183;28;41945;-67
2024/01/25 01:48:04;;;;;;;8.02;2.47;;;;;;;;;;5010888;28;41816;-66
2024/01/25 01:50:32;;;;;;;8.70;3.05;;;;;;;;;;5010327;28;41856;-67
2024/01/25 01:53:00;;;;;;;10.75;2.80;;;;;;;;;;5015318;28;43131;-67
2024/01/25 01:55:28;;;;;;;7.22;2.85;;;;;;;;;;5026522;28;41020;-67
2024/01/25 01:57:57;;;;;;;11.00;3.10;;;;;;;;;;5022224;28;42820;-67
2024/01/25 02:00:26;;;;;;;8.05;2.70;;;;;;;;;;5007768;28;42751;-67
2024/01/25 02:02:54;;;;;;;14.90;3.20;;;;;;;;;;5018861;28;41318;-67
2024/01/25 02:05:22;;;;;;;11.52;3.40;;;;;;;;;;5015524;28;41278;-67
2024/01/25 02:07:49;;;;;;;12.40;3.40;;;;;;;;;;5018070;28;43463;-67
2024/01/25 02:10:18;;;;;;;12.60;3.58;;;;;;;;;;5012674;28;42687;-67
2024/01/25 02:12:46;;;;;;;9.20;3.10;;;;;;;;;;5010808;28;42021;-66
2024/01/25 02:15:15;;;;;;;7.47;2.60;;;;;;;;;;5013798;28;40910;-66
2024/01/25 02:17:43;;;;;;;7.97;2.53;;;;;;;;;;5017137;28;42160;-67
2024/01/25 02:20:11;;;;;;;8.93;2.70;;;;;;;;;;5013911;28;41693;-66
2024/01/25 02:22:41;;;;;;;8.93;3.45;;;;;;;;;;5010264;28;41055;-66
2024/01/25 02:25:09;;;;;;;9.60;2.55;;;;;;;;;;5013694;28;41611;-67
2024/01/25 02:27:38;;;;;;;9.25;2.90;;;;;;;;;;5023454;28;41501;-66
2024/01/25 02:30:07;;;;;;;9.48;2.80;;;;;;;;;;5025862;28;40750;-66
2024/01/25 02:32:35;;;;;;;9.85;2.70;;;;;;;;;;5025921;28;41971;-66
2024/01/25 02:35:03;;;;;;;9.13;2.97;;;;;;;;;;5018122;28;42410;-66
2024/01/25 02:37:31;;;;;;;9.13;3.25;;;;;;;;;;5026061;28;42695;-66
2024/01/25 02:40:00;;;;;;;9.02;3.28;;;;;;;;;;5023311;28;42600;-67
2024/01/25 02:42:28;;;;;;;10.07;3.25;;;;;;;;;;5016919;28;41367;-66
2024/01/25 02:44:57;;;;;;;8.82;2.47;;;;;;;;;;5021659;28;41773;-66
2024/01/25 02:47:24;;;;;;;9.15;3.05;;;;;;;;;;5024575;28;42392;-66
2024/01/25 02:49:52;;;;;;;8.82;3.17;;;;;;;;;;5021413;28;40936;-67
2024/01/25 02:52:20;;;;;;;9.15;3.05;;;;;;;;;;5012952;28;42205;-67
2024/01/25 02:54:48;;;;;;;9.63;2.95;;;;;;;;;;5016964;28;41230;-66
2024/01/25 02:57:19;;;;;;;9.75;2.78;;;;;;;;;;5019740;28;41743;-66
2024/01/25 02:59:48;;;;;;;7.38;2.90;;;;;;;;;;5013812;28;41807;-66
2024/01/25 03:02:16;;;;;;;7.03;2.42;;;;;;;;;;5016318;28;41865;-67
2024/01/25 03:04:44;;;;;;;10.50;3.25;;;;;;;;;;5012566;28;41687;-67
2024/01/25 03:07:13;;;;;;;11.25;3.65;;;;;;;;;;5020613;28;42078;-67
2024/01/25 03:09:41;;;;;;;7.18;2.53;;;;;;;;;;5015360;28;42485;-67
2024/01/25 03:12:09;;;;;;;9.13;3.40;;;;;;;;;;5014800;28;42726;-66
2024/01/25 03:14:38;;;;;;;11.27;3.17;;;;;;;;;;5009114;28;33142;-66
2024/01/25 03:17:06;;;;;;;8.38;2.95;;;;;;;;;;5006893;28;41501;-67
2024/01/25 03:19:34;;;;;;;9.48;2.97;;;;;;;;;;5012194;28;42667;-67
2024/01/25 03:22:02;;;;;;;8.70;2.78;;;;;;;;;;5018002;28;41784;-67
2024/01/25 03:24:30;;;;;;;9.18;2.83;;;;;;;;;;5021659;28;41522;-67
2024/01/25 03:26:58;;;;;;;10.30;2.97;;;;;;;;;;5015841;28;41804;-67
2024/01/25 03:29:26;;;;;;;10.30;2.80;;;;;;;;;;5007065;28;40703;-67
2024/01/25 03:31:55;;;;;;;9.63;2.72;;;;;;;;;;5020075;28;41245;-66
2024/01/25 03:34:23;;;;;;;10.15;2.95;;;;;;;;;;5023042;28;42602;-66
2024/01/25 03:36:53;;;;;;;9.05;3.38;;;;;;;;;;5023943;28;41730;-67
2024/01/25 03:39:21;;;;;;;6.13;2.63;;;;;;;;;;5020716;28;42269;-67
2024/01/25 03:41:49;;;;;;;9.18;2.67;;;;;;;;;;5022076;28;41396;-67
2024/01/25 03:44:17;;;;;;;10.15;2.83;;;;;;;;;;5022665;28;41832;-67
2024/01/25 03:46:45;;;;;;;9.40;3.33;;;;;;;;;;5023871;28;42067;-67
2024/01/25 03:49:15;;;;;;;9.90;3.28;;;;;;;;;;5023335;28;41322;-67
2024/01/25 03:51:43;;;;;;;10.18;3.35;;;;;;;;;;5021783;28;42459;-67
2024/01/25 03:54:11;;;;;;;9.43;2.85;;;;;;;;;;5023234;28;42537;-66
2024/01/25 03:56:39;;;;;;;13.52;3.17;;;;;;;;;;5017036;28;41846;-66
2024/01/25 03:59:10;;;;;;;8.15;2.42;;;;;;;;;;5019925;28;42710;-66
2024/01/25 04:01:41;;;;;;;8.63;2.78;;;;;;;;;;5013978;28;41869;-67
2024/01/25 04:04:10;;;;;;;8.50;3.10;;;;;;;;;;5013999;28;42628;-66
2024/01/25 04:06:41;;;;;;;11.32;3.00;;;;;;;;;;5014430;28;42171;-67
2024/01/25 04:09:09;;;;;;;8.30;2.75;;;;;;;;;;5026068;28;41924;-66
2024/01/25 04:11:37;;;;;;;10.50;3.33;;;;;;;;;;5012190;28;42326;-67
2024/01/25 04:14:05;;;;;;;11.05;3.53;;;;;;;;;;5015165;28;41697;-67
2024/01/25 04:16:33;;;;;;;6.65;2.90;;;;;;;;;;5012338;28;42181;-66
2024/01/25 04:19:01;;;;;;;9.73;2.53;;;;;;;;;;5013386;28;42253;-67
2024/01/25 04:21:29;;;;;;;9.82;2.92;;;;;;;;;;5010491;28;40665;-66
2024/01/25 04:23:59;;;;;;;7.60;2.35;;;;;;;;;;5009302;28;42245;-66
2024/01/25 04:26:27;;;;;;;7.32;3.05;;;;;;;;;;5015554;28;42001;-66
2024/01/25 04:28:55;;;;;;;7.03;2.40;;;;;;;;;;5022656;28;41324;-66
2024/01/25 04:31:23;;;;;;;9.25;3.00;;;;;;;;;;5009634;28;42889;-67
2024/01/25 04:33:51;;;;;;;8.07;2.45;;;;;;;;;;5012957;28;42447;-67
2024/01/25 04:36:19;;;;;;;10.23;2.80;;;;;;;;;;5027537;28;41055;-67
2024/01/25 04:38:47;;;;;;;9.50;2.72;;;;;;;;;;5017026;28;42818;-67
2024/01/25 04:41:16;;;;;;;9.00;2.88;;;;;;;;;;5010816;28;42626;-66
2024/01/25 04:43:46;;;;;;;6.72;3.00;;;;;;;;;;5014677;28;41664;-66
2024/01/25 04:46:14;;;;;;;7.47;2.58;;;;;;;;;;5011485;28;43736;-66
2024/01/25 04:48:42;;;;;;;9.50;2.83;;;;;;;;;;5010907;28;40892;-66
2024/01/25 04:51:15;;;;;;;7.93;3.00;;;;;;;;;;5009251;28;41501;-67
2024/01/25 04:53:43;;;;;;;7.15;2.40;;;;;;;;;;5009496;28;42254;-66
2024/01/25 04:56:11;;;;;;;10.80;3.10;;;;;;;;;;5009341;28;42372;-67
2024/01/25 04:58:40;;;;;;;7.35;2.60;;;;;;;;;;5013707;28;41460;-67
2024/01/25 05:01:08;;;;;;;10.32;2.78;;;;;;;;;;5027011;28;41909;-67
2024/01/25 05:03:36;;;;;;;6.28;2.30;;;;;;;;;;5022894;28;42993;-66
2024/01/25 05:06:04;;;;;;;12.30;3.50;;;;;;;;;;5023201;28;42569;-66
2024/01/25 05:08:33;;;;;;;9.80;2.50;;;;;;;;;;5017887;28;41251;-66
2024/01/25 05:11:01;;;;;;;6.57;2.20;;;;;;;;;;5021569;28;41595;-66
2024/01/25 05:13:30;;;;;;;6.97;2.67;;;;;;;;;;5017841;28;42394;-67
2024/01/25 05:16:00;;;;;;;8.02;2.67;;;;;;;;;;5018336;28;42292;-66
2024/01/25 05:18:28;;;;;;;7.22;2.72;;;;;;;;;;5016444;28;41883;-66
2024/01/25 05:20:57;;;;;;;8.15;2.78;;;;;;;;;;5009063;28;42835;-66
2024/01/25 05:23:26;;;;;;;8.00;2.80;;;;;;;;;;5008265;28;41957;-67
2024/01/25 05:25:54;;;;;;;9.25;2.30;;;;;;;;;;5025873;28;41969;-67
2024/01/25 05:28:21;;;;;;;7.10;2.67;;;;;;;;;;5025835;28;41206;-66
2024/01/25 05:30:50;;;;;;;9.15;2.53;;;;;;;;;;5008909;28;42648;-66
2024/01/25 05:33:19;;;;;;;7.85;2.92;;;;;;;;;;5007917;28;42658;-66
2024/01/25 05:35:47;;;;;;;6.80;2.28;;;;;;;;;;5026611;28;42465;-66
2024/01/25 05:38:16;;;;;;;6.40;2.08;;;;;;;;;;5021916;28;41510;-66
2024/01/25 05:40:44;;;;;;;6.35;2.42;;;;;;;;;;5019714;28;42415;-67
2024/01/25 05:43:12;;;;;;;6.20;2.17;;;;;;;;;;5022197;28;40854;-66
2024/01/25 05:45:40;;;;;;;7.57;2.97;;;;;;;;;;5023589;28;42504;-67
2024/01/25 05:48:08;;;;;;;9.95;2.90;;;;;;;;;;5018384;28;41576;-67
2024/01/25 05:50:38;;;;;;;7.03;2.67;;;;;;;;;;5016430;28;42275;-66
2024/01/25 05:53:06;;;;;;;8.48;2.85;;;;;;;;;;5015056;28;42698;-66
2024/01/25 05:55:34;;;;;;;7.05;2.72;;;;;;;;;;5016516;28;41990;-66
2024/01/25 05:58:02;;;;;;;8.10;2.25;;;;;;;;;;5011032;28;41484;-67
2024/01/25 06:00:31;;;;;;;8.45;3.22;;;;;;;;;;5013442;28;41747;-66
2024/01/25 06:03:00;;;;;;;8.43;2.40;;;;;;;;;;5013251;28;41998;-66
2024/01/25 06:05:28;;;;;;;7.20;2.85;;;;;;;;;;5018233;28;41726;-66
2024/01/25 06:07:58;;;;;;;7.68;2.30;;;;;;;;;;5016746;28;43132;-67
2024/01/25 06:10:26;;;;;;;5.65;2.22;;;;;;;;;;5020079;28;41325;-67
2024/01/25 06:12:54;;;;;;;9.95;2.60;;;;;;;;;;5019016;28;41774;-67
2024/01/25 06:15:22;;;;;;;6.90;2.88;;;;;;;;;;5016541;28;41129;-66
2024/01/25 06:17:50;;;;;;;8.57;2.95;;;;;;;;;;5010283;28;41408;-66
2024/01/25 06:20:18;;;;;;;5.13;2.20;;;;;;;;;;5014761;28;41541;-66
2024/01/25 06:22:47;;;;;;;6.60;2.45;;;;;;;;;;5024363;28;41933;-67
2024/01/25 06:25:16;;;;;;;7.80;2.72;;;;;;;;;;5006752;28;41119;-66
2024/01/25 06:27:44;;;;;;;7.90;2.70;;;;;;;;;;5007253;28;42273;-67
2024/01/25 06:30:13;;;;;;;6.68;2.80;;;;;;;;;;5011601;28;41372;-67
2024/01/25 06:32:40;;;;;;;7.25;2.40;;;;;;;;;;5015495;28;43192;-66
2024/01/25 06:35:09;;;;;;;7.57;2.55;;;;;;;;;;5020612;28;41862;-67
2024/01/25 06:37:37;;;;;;;9.07;2.30;;;;;;;;;;5025244;28;42730;-66
2024/01/25 06:40:06;;;;;;;5.72;2.53;;;;;;;;;;5007033;28;43290;-67
2024/01/25 06:42:35;;;;;;;6.60;2.38;;;;;;;;;;5007157;28;41295;-67
2024/01/25 06:45:04;;;;;;;5.82;2.45;;;;;;;;;;5011846;28;42509;-67
2024/01/25 06:47:32;;;;;;;7.72;2.55;;;;;;;;;;5010123;28;41556;-67
2024/01/25 06:50:00;;;;;;;6.53;2.80;;;;;;;;;;5009669;28;42303;-67
2024/01/25 06:52:29;;;;;;;5.05;1.77;;;;;;;;;;5015384;28;41790;-67
2024/01/25 06:54:57;;;;;;;5.82;2.40;;;;;;;;;;5008320;28;42861;-67
2024/01/25 06:57:25;;;;;;;6.35;2.30;;;;;;;;;;5024629;28;42191;-67
2024/01/25 06:59:55;;;;;;;6.90;2.20;;;;;;;;;;5019277;28;42690;-67
2024/01/25 07:02:23;;;;;;;6.50;2.17;;;;;;;;;;5017181;28;41980;-67
2024/01/25 07:04:53;;;;;;;7.82;2.58;;;;;;;;;;5006480;28;41320;-67
2024/01/25 07:07:22;;;;;;;5.90;2.50;;;;;;;;;;5011981;28;43237;-67
2024/01/25 07:09:50;;;;;;;5.43;2.20;;;;;;;;;;5008612;28;41347;-67
2024/01/25 07:12:19;;;;;;;7.60;2.33;;;;;;;;;;5008306;28;41626;-67
2024/01/25 07:14:46;;;;;;;6.78;2.08;;;;;;;;;;5005593;28;43071;-67
2024/01/25 07:17:16;;;;;;;7.93;2.60;;;;;;;;;;5016663;28;41174;-67
2024/01/25 07:19:44;;;;;;;6.70;2.17;;;;;;;;;;5015252;28;41933;-67
2024/01/25 07:22:14;;;;;;;5.43;1.77;;;;;;;;;;5019738;28;41482;-67
2024/01/25 07:24:42;;;;;;;6.55;2.45;;;;;;;;;;5017045;28;42641;-67
2024/01/25 07:27:11;;;;;;;7.90;2.88;;;;;;;;;;5014884;28;42625;-67
2024/01/25 07:29:39;;;;;;;6.82;2.47;;;;;;;;;;5014715;28;40935;-66
2024/01/25 07:32:07;;;;;;;7.55;2.45;;;;;;;;;;5017753;28;41274;-67
2024/01/25 07:34:36;;;;;;;7.50;3.05;;;;;;;;;;5011908;28;43104;-75
2024/01/25 07:37:05;;;;;;;7.57;2.88;;;;;;;;;;5025713;28;40659;-69
2024/01/25 07:39:33;;;;;;;10.13;2.88;;;;;;;;;;5021523;28;42139;-69
2024/01/25 07:42:01;;;;;;;10.60;3.05;;;;;;;;;;5021623;28;40184;-75
2024/01/25 07:44:29;;;;;;;10.48;2.60;;;;;;;;;;5016732;28;42248;-76
2024/01/25 07:46:57;;;;;;;12.20;3.60;;;;;;;;;;5020203;28;42118;-75
2024/01/25 07:49:25;;;;;;;11.30;3.22;;;;;;;;;;5012462;28;42339;-74
2024/01/25 07:51:56;;;;;;;6.57;2.95;;;;;;;;;;5014948;28;41708;-74
2024/01/25 07:54:24;;;;;;;6.65;2.60;;;;;;;;;;5010042;28;41915;-74
2024/01/25 07:56:52;;;;;;;9.75;3.03;;;;;;;;;;5015632;28;41238;-74
2024/01/25 07:59:20;;;;;;;7.75;3.33;;;;;;;;;;5010274;28;43079;-75
2024/01/25 08:01:48;;;;;;;11.77;2.90;;;;;;;;;;5012244;28;42295;-79
2024/01/25 08:04:16;;;;;;;11.30;3.55;;;;;;;;;;5014182;28;42310;-74
2024/01/25 08:06:44;;;;;;;6.88;2.72;;;;;;;;;;5018799;28;42185;-75
2024/01/25 08:09:14;;;;;;;8.13;2.80;;;;;;;;;;5022269;28;42396;-75
2024/01/25 08:11:42;;;;;;;10.55;3.35;;;;;;;;;;5013466;28;42313;-74
2024/01/25 08:14:10;;;;;;;9.23;3.20;;;;;;;;;;5011172;28;42872;-77
2024/01/25 08:16:39;;;;;;;10.45;3.33;;;;;;;;;;5012414;28;41207;-78
2024/01/25 08:19:07;;;;;;;9.25;2.90;;;;;;;;;;5022770;28;41828;-77
2024/01/25 08:21:36;;;;;;;9.68;2.83;;;;;;;;;;4995252;23;41798;-72
2024/01/25 08:24:05;;;;;;;11.40;3.50;;;;;;;;;;4963107;28;41415;-72
2024/01/25 08:26:34;;;;;;;10.40;3.28;;;;;;;;;;4964797;28;41562;-73
2024/01/25 08:29:02;;;;;;;10.45;3.05;;;;;;;;;;4957319;28;41909;-73
2024/01/25 08:31:30;;;;;;;9.43;2.67;;;;;;;;;;4965196;28;42692;-72
2024/01/25 08:33:58;;;;;;;13.38;3.47;;;;;;;;;;4963940;28;42003;-72
2024/01/25 08:36:27;;;;;;;15.80;3.47;;;;;;;;;;4968530;28;41266;-72
2024/01/25 08:38:55;;;;;;;16.80;3.40;;;;;;;;;;4954194;28;41757;-73
2024/01/25 08:41:24;;;;;;;16.65;3.47;;;;;;;;;;4970786;28;43092;-72
2024/01/25 08:43:53;;;;;;;10.35;2.83;;;;;;;;;;4969663;28;41507;-72
2024/01/25 08:46:21;;;;;;;10.27;3.33;;;;;;;;;;4966399;28;43090;-72
2024/01/25 08:48:49;;;;;;;15.63;3.20;;;;;;;;;;4965687;28;41378;-72
2024/01/25 08:51:17;;;;;;;55.55;7.80;;;;;;;;;;4967316;28;41473;-74
2024/01/25 08:53:45;;;;;;;29.55;5.05;;;;;;;;;;4949810;28;40540;-73
2024/01/25 08:56:13;;;;;;;21.10;4.88;;;;;;;;;;4964440;28;41978;-73
2024/01/25 08:58:41;;;;;;;19.23;3.85;;;;;;;;;;4949890;28;42686;-72
2024/01/25 09:01:11;;;;;;;15.27;4.30;;;;;;;;;;4960071;28;41910;-73
2024/01/25 09:03:39;;;;;;;20.27;4.28;;;;;;;;;;4963576;28;42381;-73
2024/01/25 09:06:07;;;;;;;15.27;4.10;;;;;;;;;;4965159;28;41963;-71
2024/01/25 09:08:35;;;;;;;18.73;4.60;;;;;;;;;;4965968;28;41334;-72
2024/01/25 09:11:04;;;;;;;14.77;3.80;;;;;;;;;;4961620;28;41657;-72
2024/01/25 09:13:32;;;;;;;21.75;3.85;;;;;;;;;;4964773;28;41978;-72
2024/01/25 09:16:13;;;;;;;17.23;5.20;;;;;;;;;;4960617;28;41336;-73
2024/01/25 09:18:41;;;;;;;18.33;5.40;;;;;;;;;;4959241;28;41626;-73
2024/01/25 09:24:14;;;;;;;13.23;3.75;;;;;;;;;;4960763;28;41019;-73
2024/01/25 09:26:42;;;;;;;14.15;4.30;;;;;;;;;;4963210;28;41599;-74
2024/01/25 09:29:10;;;;;;;16.95;4.60;;;;;;;;;;4965187;28;40173;-73
2024/01/25 09:31:39;;;;;;;17.00;3.70;;;;;;;;;;4964276;28;42163;-73
2024/01/25 09:34:08;;;;;;;14.80;4.18;;;;;;;;;;4967851;28;41992;-72
2024/01/25 09:36:37;;;;;;;22.35;4.18;;;;;;;;;;4956950;28;41491;-73
2024/01/25 09:39:05;;;;;;;14.93;4.55;;;;;;;;;;4951119;28;40391;-72
2024/01/25 09:41:33;;;;;;;13.18;4.68;;;;;;;;;;4963785;28;42830;-72
2024/01/25 09:44:02;;;;;;;16.45;4.63;;;;;;;;;;4958897;28;41270;-73
2024/01/25 09:46:30;;;;;;;12.27;4.03;;;;;;;;;;4966627;28;41194;-74
2024/01/25 09:49:00;;;;;;;14.13;4.43;;;;;;;;;;4965990;28;41370;-78
2024/01/25 09:51:28;;;;;;;15.20;4.70;;;;;;;;;;4967121;28;42249;-76
2024/01/25 09:53:56;;;;;;;16.95;5.07;;;;;;;;;;4965493;28;41869;-76
2024/01/25 09:56:24;;;;;;;14.98;4.47;;;;;;;;;;4965124;28;41489;-76
2024/01/25 09:58:52;;;;;;;15.80;3.95;;;;;;;;;;4964591;28;41561;-76
2024/01/25 10:01:20;;;;;;;12.63;4.03;;;;;;;;;;4965303;28;42563;-77
2024/01/25 10:03:48;;;;;;;15.23;4.68;;;;;;;;;;4964674;28;41191;-76
2024/01/25 10:06:19;;;;;;;23.20;5.38;;;;;;;;;;4950438;28;41087;-75
2024/01/25 10:08:47;;;;;;;16.65;5.05;;;;;;;;;;4965209;28;42390;-76
2024/01/25 10:11:15;;;;;;;21.13;5.30;;;;;;;;;;4967104;28;42843;-77
2024/01/25 10:13:43;;;;;;;12.25;4.13;;;;;;;;;;4967048;28;43686;-77
2024/01/25 10:16:11;;;;;;;11.25;4.15;;;;;;;;;;4965570;28;41576;-77
2024/01/25 10:18:40;;;;;;;17.10;4.13;;;;;;;;;;4964265;28;41704;-76
2024/01/25 10:21:10;;;;;;;15.02;4.20;;;;;;;;;;4965494;28;41744;-75
2024/01/25 10:23:41;;;;;;;16.65;4.78;;;;;;;;;;4966868;28;41353;-75
2024/01/25 10:26:10;;;;;;;18.27;4.15;;;;;;;;;;4967715;28;42226;-77
2024/01/25 10:28:38;;;;;;;13.80;4.55;;;;;;;;;;4962860;28;41942;-76
2024/01/25 10:31:07;;;;;;;10.95;4.05;;;;;;;;;;4965771;28;40977;-76
2024/01/25 10:33:35;;;;;;;18.67;4.30;;;;;;;;;;4963868;28;43595;-77
2024/01/25 10:36:05;;;;;;;13.18;4.60;;;;;;;;;;4965359;28;40962;-76
2024/01/25 10:38:34;;;;;;;12.32;4.15;;;;;;;;;;4964396;28;41446;-76
2024/01/25 10:41:05;;;;;;;13.45;4.18;;;;;;;;;;4963840;28;41746;-78
2024/01/25 10:43:33;;;;;;;15.23;3.95;;;;;;;;;;4949173;28;41420;-77
2024/01/25 10:46:02;;;;;;;11.30;3.58;;;;;;;;;;4965265;28;41578;-75
2024/01/25 10:48:32;;;;;;;15.80;4.30;;;;;;;;;;4964945;28;43314;-76
2024/01/25 10:51:02;;;;;;;14.65;4.00;;;;;;;;;;4967773;28;41256;-75
2024/01/25 10:53:32;;;;;;;14.98;4.85;;;;;;;;;;4963951;28;42876;-76
2024/01/25 10:56:00;;;;;;;14.90;4.57;;;;;;;;;;4965129;28;42363;-75
2024/01/25 10:58:33;;;;;;;15.40;3.90;;;;;;;;;;4964065;28;41756;-76
2024/01/25 11:01:10;;;;;;;19.95;4.47;;;;;;;;;;4966641;28;41677;-78
2024/01/25 11:03:43;;;;;;;13.43;4.00;;;;;;;;;;4948798;28;39760;-76
2024/01/25 11:06:11;;;;;;;15.75;4.43;;;;;;;;;;4965066;28;41376;-77
2024/01/25 11:08:40;;;;;;;13.95;4.07;;;;;;;;;;4966113;28;41693;-77
2024/01/25 11:11:08;;;;;;;17.17;5.15;;;;;;;;;;4965385;28;42229;-76
2024/01/25 11:13:39;;;;;;;14.70;4.53;;;;;;;;;;4967232;28;42760;-77
2024/01/25 11:16:14;;;;;;;9.15;4.05;;;;;;;;;;4949823;28;40976;-76
2024/01/25 11:18:49;;;;;;;14.38;4.10;;;;;;;;;;4963750;28;42630;-76
2024/01/25 11:21:26;;;;;;;14.57;4.40;;;;;;;;;;4964129;28;42241;-76
2024/01/25 11:24:01;;;;;;;13.45;4.60;;;;;;;;;;4966261;28;40998;-77
2024/01/25 11:26:29;;;;;;;13.77;5.03;;;;;;;;;;4963984;28;41079;-75
2024/01/25 11:29:00;;;;;;;13.50;4.57;;;;;;;;;;4965894;28;42028;-73
2024/01/25 11:31:28;;;;;;;12.52;4.05;;;;;;;;;;4962099;28;41428;-75
2024/01/25 11:33:59;;;;;;;14.38;5.30;;;;;;;;;;4964066;28;42571;-74
2024/01/25 11:36:28;;;;;;;16.00;4.45;;;;;;;;;;4964499;28;41800;-74
2024/01/25 11:38:57;;;;;;;15.00;4.65;;;;;;;;;;4965012;28;40776;-74
2024/01/25 11:41:25;;;;;;;13.40;4.00;;;;;;;;;;4961994;28;42651;-74
2024/01/25 11:43:53;;;;;;;12.77;4.43;;;;;;;;;;4964399;28;41955;-73
2024/01/25 11:46:22;;;;;;;16.13;4.47;;;;;;;;;;4964503;28;43200;-72
2024/01/25 11:48:50;;;;;;;13.77;4.80;;;;;;;;;;4963824;28;42175;-71
2024/01/25 11:51:19;;;;;;;11.25;3.53;;;;;;;;;;4964234;28;41591;-72
2024/01/25 11:53:47;;;;;;;15.55;4.28;;;;;;;;;;4962974;28;41044;-72
2024/01/25 11:56:16;;;;;;;11.93;4.55;;;;;;;;;;4964114;28;42302;-73
2024/01/25 11:58:44;;;;;;;21.73;5.22;;;;;;;;;;4961827;28;41435;-75
2024/01/25 12:01:13;;;;;;;13.68;4.72;;;;;;;;;;4965150;28;42032;-77
2024/01/25 12:03:42;;;;;;;12.15;4.20;;;;;;;;;;4961982;28;42494;-74
2024/01/25 12:06:10;;;;;;;13.23;4.72;;;;;;;;;;4964662;28;41947;-74
2024/01/25 12:08:39;;;;;;;13.43;4.88;;;;;;;;;;4966999;28;41939;-75
2024/01/25 12:11:07;;;;;;;16.75;4.18;;;;;;;;;;4952501;28;41160;-76
2024/01/25 12:13:35;;;;;;;13.90;4.20;;;;;;;;;;4966804;28;41295;-74
2024/01/25 12:16:04;;;;;;;11.07;4.05;;;;;;;;;;4965924;28;41644;-76
2024/01/25 12:18:32;;;;;;;14.35;4.20;;;;;;;;;;4968864;28;41183;-76
2024/01/25 12:21:04;;;;;;;15.70;4.97;;;;;;;;;;4966381;28;41251;-77
2024/01/25 12:23:32;;;;;;;24.73;5.28;;;;;;;;;;4968506;28;41354;-77
2024/01/25 12:26:04;;;;;;;11.65;4.57;;;;;;;;;;4966036;28;41218;-77
2024/01/25 12:28:33;;;;;;;11.88;4.55;;;;;;;;;;4965116;28;43110;-78
2024/01/25 12:31:02;;;;;;;14.48;4.43;;;;;;;;;;4967523;28;41856;-75
2024/01/25 12:33:31;;;;;;;13.05;4.15;;;;;;;;;;4966307;28;42143;-77
2024/01/25 12:35:59;;;;;;;12.48;4.07;;;;;;;;;;4967540;28;42746;-75
2024/01/25 12:38:29;;;;;;;13.77;4.63;;;;;;;;;;4967375;28;41067;-75
2024/01/25 12:40:58;;;;;;;14.57;4.93;;;;;;;;;;4966869;28;41138;-75
2024/01/25 12:43:26;;;;;;;13.00;4.45;;;;;;;;;;4967152;28;41709;-74
2024/01/25 12:45:54;;;;;;;13.50;4.22;;;;;;;;;;4966377;28;41237;-74
2024/01/25 12:48:30;;;;;;;16.55;4.72;;;;;;;;;;4966738;28;41575;-75
2024/01/25 12:50:59;;;;;;;14.93;4.00;;;;;;;;;;4957792;28;42403;-75
2024/01/25 12:53:29;;;;;;;14.57;4.60;;;;;;;;;;4964270;28;41098;-75
2024/01/25 12:55:57;;;;;;;17.48;5.30;;;;;;;;;;4965261;28;42838;-75
2024/01/25 12:58:24;;;;;;;12.55;4.50;;;;;;;;;;4967002;28;41896;-74
2024/01/25 13:00:53;;;;;;;11.00;4.20;;;;;;;;;;4965101;28;42347;-75
2024/01/25 13:03:21;;;;;;;15.05;4.82;;;;;;;;;;4966630;28;41647;-75
2024/01/25 13:05:49;;;;;;;14.02;4.40;;;;;;;;;;4967372;28;41319;-72
2024/01/25 13:08:18;;;;;;;10.75;3.88;;;;;;;;;;4964612;28;41761;-72
2024/01/25 13:10:48;;;;;;;13.65;4.90;;;;;;;;;;4965218;28;41052;-73
2024/01/25 13:13:16;;;;;;;13.27;4.32;;;;;;;;;;4968025;28;41226;-73
2024/01/25 13:15:44;;;;;;;13.23;4.07;;;;;;;;;;4964264;28;42317;-72
2024/01/25 13:18:12;;;;;;;12.52;4.50;;;;;;;;;;4964951;28;41196;-72
2024/01/25 13:20:40;;;;;;;11.43;3.88;;;;;;;;;;4964137;28;41484;-73
2024/01/25 13:23:14;;;;;;;19.70;4.90;;;;;;;;;;4976078;28;41921;-73
2024/01/25 13:25:42;;;;;;;14.65;4.38;;;;;;;;;;4965055;28;41061;-74
2024/01/25 13:28:11;;;;;;;12.43;4.20;;;;;;;;;;4961767;28;41038;-75
2024/01/25 13:30:39;;;;;;;11.05;4.25;;;;;;;;;;4964669;28;40964;-75
2024/01/25 13:33:07;;;;;;;13.75;4.15;;;;;;;;;;4969630;28;41128;-74
2024/01/25 13:35:35;;;;;;;13.48;3.75;;;;;;;;;;4966249;28;41973;-75
2024/01/25 13:38:03;;;;;;;10.65;4.00;;;;;;;;;;4969432;28;41070;-75
2024/01/25 13:40:31;;;;;;;15.25;4.82;;;;;;;;;;4967433;28;41375;-73
2024/01/25 13:42:59;;;;;;;13.38;4.47;;;;;;;;;;4960354;28;42831;-75
2024/01/25 13:45:29;;;;;;;13.57;4.53;;;;;;;;;;4964219;28;41831;-72
2024/01/25 13:47:57;;;;;;;13.10;4.28;;;;;;;;;;4967719;28;41724;-73
2024/01/25 13:50:25;;;;;;;14.38;4.43;;;;;;;;;;4967241;28;33896;-75
2024/01/25 13:52:52;;;;;;;12.15;3.88;;;;;;;;;;4964766;28;41983;-74
2024/01/25 13:55:20;;;;;;;18.20;5.35;;;;;;;;;;4963438;28;42106;-74
2024/01/25 13:57:49;;;;;;;12.90;4.82;;;;;;;;;;4967262;28;41674;-75
2024/01/25 14:00:17;;;;;;;15.18;5.03;;;;;;;;;;4967406;28;41757;-74
2024/01/25 14:02:46;;;;;;;16.00;4.40;;;;;;;;;;4967149;28;43072;-75
2024/01/25 14:05:15;;;;;;;14.13;5.22;;;;;;;;;;4964141;28;42319;-75
2024/01/25 14:07:43;;;;;;;10.85;4.55;;;;;;;;;;4964158;28;41454;-74
2024/01/25 14:10:11;;;;;;;14.02;4.70;;;;;;;;;;4965500;28;41984;-75
2024/01/25 14:12:39;;;;;;;14.93;4.78;;;;;;;;;;4966810;28;40967;-75
2024/01/25 14:15:07;;;;;;;17.33;5.40;;;;;;;;;;4964269;28;41873;-76
2024/01/25 14:17:36;;;;;;;13.40;4.95;;;;;;;;;;4965657;28;41144;-75
2024/01/25 14:20:08;;;;;;;17.20;4.63;;;;;;;;;;4952645;28;41296;-72
2024/01/25 14:22:36;;;;;;;16.65;3.92;;;;;;;;;;4968990;28;41796;-72
2024/01/25 14:25:05;;;;;;;12.02;4.40;;;;;;;;;;4966194;28;40806;-72
2024/01/25 14:27:33;;;;;;;14.10;3.83;;;;;;;;;;4963747;28;42389;-71
2024/01/25 14:30:03;;;;;;;19.55;5.28;;;;;;;;;;4963826;28;43203;-72
2024/01/25 14:32:31;;;;;;;11.73;4.07;;;;;;;;;;4966902;28;41690;-71
2024/01/25 14:35:00;;;;;;;14.60;3.67;;;;;;;;;;4967750;28;41860;-72
2024/01/25 14:37:31;;;;;;;15.57;4.82;;;;;;;;;;4965416;28;42072;-70
2024/01/25 14:39:59;;;;;;;17.58;5.00;;;;;;;;;;4963884;28;41915;-71
2024/01/25 14:42:47;;;;;;;13.93;5.43;;;;;;;;;;4964867;28;42700;-70
2024/01/25 14:45:15;;;;;;;12.45;5.18;;;;;;;;;;4964874;28;41327;-70
2024/01/25 14:47:43;;;;;;;17.73;6.55;;;;;;;;;;4965967;28;41750;-71